Shantytown, Nevada
Current Conditions -  °F | °C
As of 3:56 AM on Wednesday 26 Nov 2014 (Local Time) from KEKO Reporting Station
Clear Clear  
Wind Chill: 19°   Ceiling: Unl
Heat Index: 25°   Visibility: 10mi
Dew Point: 23°   Wind: 5mph
Humidity: 92%   Direction: 160°SSE
Pressure: 30.42"   Gusts: NA
Location:  40.3333°N, 115.23°W
Report Text: KEKO 261156Z AUTO 16004KT 10SM CLR M04/M05 A3042 RMK AO2 SLP315 T10391050 10011 21039 50004
Loading
Personal Weather Stations






























Interactive Weather Map New forecast layout! Learn more

10-Day Weather Forecast

Advertisements
Track Severe Weather on mobile